Airport ICAO


19:07 UTC

13°C

Clear skies


An affordable passengers' Moving Map for your aircraft. Made for the iPad and the iPhone
More information here

LFLN


Saint Yan FRANCE   VFR CAVOK


METAR LFLN 231900Z AUTO 32003KT CAVOK 13/03 Q1026 NOSIG 0h07min

TAF AMD LFLN 231801Z 2318/2403 32004KT CAVOK BECMG 2321/2324 VRB02KT 4500 BR BECMG 2400/2402 2000 BKN004 1h06min





NOTAMS

OPEN